Time;durP1;ratioP1;P1;durP2;ratioP2;P2;SDS_P1;SDS_P2;PMS_P1;PMS_P2;Temp;Humidity;BMP_temperature;BMP_pressure;BME280_temperature;BME280_humidity;BME280_pressure;Samples;Min_cycle;Max_cycle;Signal;HPM_P1;HPM_P2
2021/11/10 00:00:49;;;;;;;23.23;11.88;;;4.50;88.20;;;;;;5072602;28;20025;-36
2021/11/10 00:03:15;;;;;;;28.75;12.95;;;4.60;88.30;;;;;;5073305;28;20021;-44
2021/11/10 00:05:41;;;;;;;23.63;12.40;;;;;;;;;;5072642;28;20064;-37
2021/11/10 00:08:08;;;;;;;19.23;10.88;;;4.40;88.30;;;;;;5072901;28;20357;-37
2021/11/10 00:10:35;;;;;;;25.65;9.90;;;4.40;88.30;;;;;;5072854;28;20500;-36
2021/11/10 00:13:19;;;;;;;21.33;11.10;;;4.40;88.30;;;;;;5073748;28;20028;-36
2021/11/10 00:15:47;;;;;;;18.27;9.68;;;4.40;88.20;;;;;;5076496;28;20116;-37
2021/11/10 00:18:15;;;;;;;16.85;10.15;;;4.40;88.40;;;;;;5076346;28;20025;-36
2021/11/10 00:20:41;;;;;;;16.10;10.38;;;4.40;88.50;;;;;;5076942;28;20069;-36
2021/11/10 00:23:07;;;;;;;24.63;11.80;;;4.40;88.40;;;;;;5076760;28;20095;-37
2021/11/10 00:25:32;;;;;;;21.48;10.77;;;4.40;88.30;;;;;;5076484;28;20048;-36
2021/11/10 00:27:58;;;;;;;22.25;10.80;;;4.40;88.20;;;;;;5076442;28;20032;-36
2021/11/10 00:30:23;;;;;;;29.77;11.98;;;4.40;88.10;;;;;;5076341;28;20504;-37
2021/11/10 00:32:49;;;;;;;16.58;9.30;;;4.40;88.10;;;;;;5076297;28;20415;-36
2021/11/10 00:35:15;;;;;;;21.67;9.95;;;4.40;88.10;;;;;;5076185;28;20060;-37
2021/11/10 00:37:41;;;;;;;17.02;10.75;;;4.40;88.10;;;;;;5076187;28;20123;-37
2021/11/10 00:40:07;;;;;;;15.27;9.82;;;4.30;88.10;;;;;;5076351;28;20032;-36
2021/11/10 00:42:33;;;;;;;21.75;10.88;;;4.30;88.30;;;;;;5074740;28;20020;-37
2021/11/10 00:44:58;;;;;;;21.42;10.27;;;4.30;88.30;;;;;;5076341;28;20024;-36
2021/11/10 00:47:24;;;;;;;21.50;10.20;;;4.30;88.20;;;;;;5076242;28;20035;-36
2021/11/10 00:49:50;;;;;;;21.48;11.40;;;4.30;88.50;;;;;;5075949;28;20090;-36
2021/11/10 00:52:15;;;;;;;19.13;9.98;;;4.40;88.50;;;;;;5075949;28;20035;-37
2021/11/10 00:54:41;;;;;;;18.25;11.05;;;4.30;88.30;;;;;;5075735;28;20490;-37
2021/11/10 00:57:07;;;;;;;23.75;11.25;;;4.30;88.40;;;;;;5075804;28;20047;-36
2021/11/10 00:59:32;;;;;;;17.48;10.18;;;4.20;88.50;;;;;;5076308;28;20029;-36
2021/11/10 01:01:58;;;;;;;25.08;10.30;;;4.20;88.40;;;;;;5075753;28;20048;-36
2021/11/10 01:04:23;;;;;;;20.13;10.75;;;4.00;88.50;;;;;;5074407;28;20070;-37
2021/11/10 01:06:49;;;;;;;25.25;10.15;;;4.00;88.60;;;;;;5074789;28;20047;-36
2021/11/10 01:09:18;;;;;;;28.98;11.00;;;4.00;88.70;;;;;;5074444;28;20031;-36
2021/11/10 01:11:45;;;;;;;18.73;8.85;;;4.00;88.80;;;;;;5073200;28;20020;-36
2021/11/10 01:14:11;;;;;;;21.10;9.88;;;3.90;88.90;;;;;;5074682;28;20419;-36
2021/11/10 01:16:37;;;;;;;18.58;10.38;;;3.90;88.90;;;;;;5074196;28;20031;-36
2021/11/10 01:19:03;;;;;;;17.48;9.77;;;3.90;89.00;;;;;;5074327;28;20067;-36
2021/11/10 01:21:28;;;;;;;16.52;9.05;;;3.90;89.10;;;;;;5073034;28;20027;-36
2021/11/10 01:23:54;;;;;;;26.80;11.48;;;3.80;89.20;;;;;;5073777;28;20027;-36
2021/11/10 01:26:20;;;;;;;24.27;10.35;;;3.80;89.30;;;;;;5074334;28;20028;-37
2021/11/10 01:28:46;;;;;;;20.10;8.93;;;3.80;89.30;;;;;;5074009;28;20113;-37
2021/11/10 01:31:12;;;;;;;18.45;11.68;;;3.80;89.40;;;;;;5074450;28;20100;-36
2021/11/10 01:33:38;;;;;;;18.42;9.68;;;3.80;89.30;;;;;;5074082;28;20028;-36
2021/11/10 01:36:03;;;;;;;22.42;10.82;;;3.80;89.30;;;;;;5074200;28;20035;-36
2021/11/10 01:38:29;;;;;;;19.65;10.20;;;3.80;89.20;;;;;;5074017;28;20116;-37
2021/11/10 01:40:55;;;;;;;14.98;8.07;;;3.80;89.30;;;;;;5073959;28;20382;-45
2021/11/10 01:43:21;;;;;;;17.27;10.13;;;3.80;89.30;;;;;;5073933;28;20077;-37
2021/11/10 01:45:46;;;;;;;23.00;11.80;;;3.80;89.30;;;;;;5073937;28;20028;-36
2021/11/10 01:48:13;;;;;;;23.10;11.70;;;3.80;89.20;;;;;;5073945;28;20031;-37
2021/11/10 01:50:39;;;;;;;19.85;10.65;;;3.80;89.30;;;;;;5073852;28;20142;-37
2021/11/10 01:53:06;;;;;;;19.25;10.10;;;3.80;89.60;;;;;;5073814;28;20032;-37
2021/11/10 01:55:32;;;;;;;15.85;8.95;;;3.80;89.50;;;;;;5073877;28;20032;-37
2021/11/10 01:57:58;;;;;;;20.58;10.18;;;3.70;89.50;;;;;;5073870;28;20464;-37
2021/11/10 02:00:26;;;;;;;17.85;10.80;;;3.80;89.50;;;;;;5073380;28;20463;-37
2021/11/10 02:02:54;;;;;;;21.13;11.00;;;3.70;89.50;;;;;;5073586;28;20103;-36
2021/11/10 02:05:23;;;;;;;18.82;9.16;;;3.70;89.50;;;;;;5064201;28;1143088;-39
2021/11/10 02:07:49;;;;;;;16.08;9.10;;;3.60;89.50;;;;;;5074637;28;20112;-37
2021/11/10 02:10:18;;;;;;;19.65;9.15;;;3.60;89.50;;;;;;5074302;28;20028;-37
2021/11/10 02:12:43;;;;;;;16.45;9.50;;;3.60;89.60;;;;;;5074263;28;20017;-37
2021/11/10 02:15:12;;;;;;;16.40;8.25;;;3.50;89.60;;;;;;5074198;28;20103;-37
2021/11/10 02:17:38;;;;;;;20.10;9.68;;;3.60;89.70;;;;;;5074096;28;20488;-37
2021/11/10 02:20:09;;;;;;;15.25;8.77;;;3.60;89.80;;;;;;5074081;28;20029;-37
2021/11/10 02:22:35;;;;;;;21.05;8.55;;;3.60;89.60;;;;;;5074337;28;20029;-37
2021/11/10 02:25:03;;;;;;;17.50;7.78;;;3.50;89.40;;;;;;5073946;28;20037;-37
2021/11/10 02:27:35;;;;;;;15.63;8.93;;;3.50;89.50;;;;;;5074006;28;20082;-36
2021/11/10 02:30:13;;;;;;;17.50;8.55;;;3.50;89.60;;;;;;5073990;28;20073;-36
2021/11/10 02:32:44;;;;;;;13.20;7.80;;;3.50;89.60;;;;;;5074758;28;20028;-37
2021/11/10 02:35:20;;;;;;;21.10;10.77;;;3.40;89.50;;;;;;5073760;28;20116;-37
2021/11/10 02:37:59;;;;;;;14.52;7.07;;;3.40;89.70;;;;;;5074579;28;20476;-37
2021/11/10 02:40:26;;;;;;;17.38;8.32;;;3.40;89.90;;;;;;5072550;28;20135;-37
2021/11/10 02:42:52;;;;;;;17.17;7.97;;;3.40;89.90;;;;;;5074097;28;20484;-37
2021/11/10 02:45:20;;;;;;;19.63;8.20;;;3.40;89.90;;;;;;5073753;28;20477;-37
2021/11/10 02:47:46;;;;;;;15.00;8.95;;;3.40;89.90;;;;;;5073955;28;20021;-50
2021/11/10 02:50:11;;;;;;;12.65;7.25;;;3.40;89.90;;;;;;5073906;28;20491;-37
2021/11/10 02:52:37;;;;;;;14.30;7.38;;;3.40;90.00;;;;;;5072361;28;20141;-37
2021/11/10 02:55:04;;;;;;;17.10;7.85;;;3.40;90.00;;;;;;5073589;28;20080;-37
2021/11/10 02:57:30;;;;;;;15.68;7.70;;;3.40;89.90;;;;;;5073535;28;20063;-37
2021/11/10 02:59:56;;;;;;;12.60;7.28;;;3.40;89.80;;;;;;5073555;28;20025;-37
2021/11/10 03:02:30;;;;;;;18.63;7.45;;;3.30;89.60;;;;;;5072140;28;20025;-38
2021/11/10 03:04:57;;;;;;;14.00;8.00;;;3.30;89.80;;;;;;5073713;28;20021;-37
2021/11/10 03:07:23;;;;;;;15.93;8.25;;;3.40;89.90;;;;;;5073220;28;20052;-37
2021/11/10 03:09:49;;;;;;;12.52;6.80;;;3.40;89.80;;;;;;5073819;28;20021;-37
2021/11/10 03:12:17;;;;;;;17.25;7.97;;;3.40;89.90;;;;;;5073321;28;20476;-38
2021/11/10 03:14:45;;;;;;;14.77;7.63;;;3.30;89.90;;;;;;5073502;28;20115;-37
2021/11/10 03:17:14;;;;;;;15.65;8.05;;;3.30;90.00;;;;;;5073244;28;20069;-37
2021/11/10 03:19:41;;;;;;;19.50;8.43;;;3.30;90.10;;;;;;5073177;28;20365;-37
2021/11/10 03:22:08;;;;;;;13.07;8.23;;;3.30;90.10;;;;;;5073481;28;20021;-38
2021/11/10 03:24:35;;;;;;;14.75;7.78;;;3.30;90.10;;;;;;5073144;28;20084;-37
2021/11/10 03:27:00;;;;;;;17.27;8.45;;;3.30;90.10;;;;;;5072290;28;20134;-37
2021/11/10 03:29:26;;;;;;;13.18;7.80;;;3.30;90.10;;;;;;5073315;28;20126;-37
2021/11/10 03:31:52;;;;;;;16.42;7.93;;;3.30;90.20;;;;;;5072993;28;20033;-37
2021/11/10 03:34:20;;;;;;;13.85;7.30;;;3.30;90.20;;;;;;5073237;28;20058;-37
2021/11/10 03:36:46;;;;;;;10.93;7.38;;;3.30;90.10;;;;;;5072890;28;20490;-37
2021/11/10 03:39:15;;;;;;;13.63;7.60;;;3.30;90.10;;;;;;5072970;28;20385;-40
2021/11/10 03:41:41;;;;;;;14.48;7.55;;;3.20;90.10;;;;;;5073017;28;20353;-39
2021/11/10 03:44:08;;;;;;;14.73;7.32;;;3.20;90.10;;;;;;5072844;28;20067;-37
2021/11/10 03:46:34;;;;;;;13.60;9.43;;;3.30;89.90;;;;;;5072783;28;20036;-37
2021/11/10 03:49:00;;;;;;;11.77;6.70;;;3.30;90.00;;;;;;5072882;28;20028;-37
2021/11/10 03:51:27;;;;;;;11.95;7.18;;;3.30;89.90;;;;;;5072691;28;20021;-37
2021/11/10 03:53:53;;;;;;;13.40;7.93;;;3.30;89.90;;;;;;5071424;28;20090;-37
2021/11/10 03:56:19;;;;;;;17.45;7.80;;;3.30;89.90;;;;;;5072703;28;20087;-37
2021/11/10 03:58:45;;;;;;;15.95;7.85;;;3.30;89.80;;;;;;5071751;28;20376;-37
2021/11/10 04:01:13;;;;;;;18.55;8.60;;;3.30;89.90;;;;;;5072725;28;20036;-37
2021/11/10 04:03:39;;;;;;;12.25;8.52;;;3.30;89.90;;;;;;5072692;28;20012;-37
2021/11/10 04:06:05;;;;;;;22.42;9.43;;;3.30;89.80;;;;;;5072507;28;20060;-37
2021/11/10 04:08:31;;;;;;;15.00;7.93;;;3.30;89.90;;;;;;5072642;28;20033;-37
2021/11/10 04:10:59;;;;;;;13.98;7.95;;;3.30;90.00;;;;;;5072845;28;20377;-37
2021/11/10 04:13:25;;;;;;;16.42;8.25;;;3.40;90.10;;;;;;5072902;28;20040;-37
2021/11/10 04:15:50;;;;;;;23.83;9.63;;;3.30;90.00;;;;;;5072539;28;20307;-37
2021/11/10 04:18:17;;;;;;;14.90;8.32;;;3.40;89.90;;;;;;5072980;28;20504;-37
2021/11/10 04:20:42;;;;;;;17.25;7.97;;;3.40;89.90;;;;;;5072443;28;20107;-39
2021/11/10 04:23:08;;;;;;;21.15;9.75;;;3.30;90.00;;;;;;5072491;28;20064;-37
2021/11/10 04:25:34;;;;;;;19.00;8.80;;;3.30;89.90;;;;;;5072526;28;20029;-36
2021/11/10 04:27:59;;;;;;;13.57;7.80;;;3.50;89.90;;;;;;5072349;28;20035;-36
2021/11/10 04:30:25;;;;;;;13.85;8.25;;;3.40;89.50;;;;;;5071452;28;20103;-36
2021/11/10 04:32:50;;;;;;;16.15;9.07;;;3.40;89.50;;;;;;5072414;28;20021;-36
2021/11/10 04:35:16;;;;;;;15.32;8.20;;;3.30;89.50;;;;;;5072843;28;20020;-36
2021/11/10 04:37:43;;;;;;;21.98;9.90;;;3.30;89.40;;;;;;5072594;28;20341;-36
2021/11/10 04:40:10;;;;;;;16.75;8.88;;;3.30;89.60;;;;;;5072597;28;20422;-36
2021/11/10 04:42:37;;;;;;;18.25;9.00;;;3.30;89.50;;;;;;5072433;28;20032;-36
2021/11/10 04:45:07;;;;;;;17.10;8.40;;;3.20;89.60;;;;;;5072378;28;20028;-36
2021/11/10 04:47:34;;;;;;;15.70;9.25;;;3.20;89.60;;;;;;5072411;28;20028;-36
2021/11/10 04:50:02;;;;;;;14.88;7.63;;;3.30;89.60;;;;;;5072338;28;20025;-37
2021/11/10 04:52:28;;;;;;;17.77;9.65;;;3.20;89.50;;;;;;5072077;28;20029;-37
2021/11/10 04:54:53;;;;;;;19.95;8.85;;;3.20;89.60;;;;;;5072330;28;20372;-37
2021/11/10 04:57:19;;;;;;;14.32;9.10;;;3.20;89.70;;;;;;5072437;28;20537;-37
2021/11/10 04:59:45;;;;;;;22.88;9.65;;;3.20;89.80;;;;;;5074341;28;20064;-37
2021/11/10 05:04:38;;;;;;;26.08;11.60;;;3.10;89.60;;;;;;5075803;28;20078;-37
2021/11/10 05:07:04;;;;;;;14.38;8.25;;;3.20;89.80;;;;;;5075552;28;20056;-37
2021/11/10 05:09:30;;;;;;;17.27;8.88;;;3.10;89.70;;;;;;5076019;28;20031;-37
2021/11/10 05:11:57;;;;;;;16.77;8.05;;;3.10;89.70;;;;;;5075595;28;20033;-37
2021/11/10 05:14:23;;;;;;;17.50;9.52;;;3.10;89.70;;;;;;5075877;28;20104;-37
2021/11/10 05:16:50;;;;;;;17.65;9.63;;;3.00;89.60;;;;;;5075456;28;20036;-37
2021/11/10 05:19:16;;;;;;;15.02;8.40;;;3.10;89.70;;;;;;5075949;28;20020;-37
2021/11/10 05:21:42;;;;;;;16.67;8.27;;;3.10;89.70;;;;;;5075508;28;20385;-37
2021/11/10 05:24:08;;;;;;;19.77;7.35;;;3.00;89.70;;;;;;5073975;28;20025;-37
2021/11/10 05:26:34;;;;;;;16.02;8.80;;;3.10;89.90;;;;;;5075288;28;20032;-38
2021/11/10 05:29:00;;;;;;;14.52;8.13;;;3.10;89.90;;;;;;5075273;28;20028;-38
2021/11/10 05:31:26;;;;;;;17.95;9.63;;;3.10;89.90;;;;;;5075237;28;20029;-36
2021/11/10 05:33:52;;;;;;;15.85;8.20;;;3.10;89.90;;;;;;5075247;28;20032;-36
2021/11/10 05:36:17;;;;;;;21.23;10.43;;;3.00;89.90;;;;;;5075342;28;20079;-36
2021/11/10 05:38:43;;;;;;;13.55;9.40;;;3.10;89.90;;;;;;5075353;28;20075;-36
2021/11/10 05:41:09;;;;;;;18.08;8.45;;;3.10;90.00;;;;;;5073849;28;20052;-37
2021/11/10 05:43:35;;;;;;;17.77;8.52;;;3.10;89.80;;;;;;5075304;28;20123;-36
2021/11/10 05:46:01;;;;;;;21.15;8.65;;;3.10;89.80;;;;;;5073743;28;20040;-37
2021/11/10 05:48:27;;;;;;;13.82;7.72;;;3.10;89.80;;;;;;5075023;28;20444;-37
2021/11/10 05:50:53;;;;;;;16.77;8.43;;;3.10;89.90;;;;;;5074928;28;20085;-37
2021/11/10 05:53:19;;;;;;;15.38;9.00;;;3.10;89.90;;;;;;5074867;28;20039;-37
2021/11/10 05:55:51;;;;;;;18.15;9.57;;;3.10;89.90;;;;;;5074932;28;20025;-36
2021/11/10 05:58:17;;;;;;;12.65;8.55;;;3.20;90.00;;;;;;5074926;28;20025;-37
2021/11/10 06:00:43;;;;;;;15.50;9.88;;;3.20;89.90;;;;;;5074761;28;20399;-37
2021/11/10 06:03:08;;;;;;;16.23;8.20;;;3.20;89.70;;;;;;5074945;28;20025;-36
2021/11/10 06:05:34;;;;;;;17.52;9.05;;;3.30;89.30;;;;;;5074380;28;20109;-37
2021/11/10 06:08:00;;;;;;;18.75;8.88;;;3.30;89.30;;;;;;5074967;28;20040;-36
2021/11/10 06:10:26;;;;;;;15.60;8.70;;;3.20;88.80;;;;;;5073997;28;20024;-37
2021/11/10 06:12:51;;;;;;;15.85;8.13;;;3.10;88.70;;;;;;5075164;28;20044;-39
2021/11/10 06:15:18;;;;;;;20.23;8.98;;;3.00;88.60;;;;;;5074375;28;20105;-36
2021/11/10 06:17:44;;;;;;;13.68;8.25;;;2.80;88.60;;;;;;5072975;28;20426;-36
2021/11/10 06:20:11;;;;;;;21.50;8.35;;;2.80;88.90;;;;;;5074639;28;20021;-36
2021/11/10 06:22:38;;;;;;;23.23;9.48;;;2.80;89.20;;;;;;5074281;28;20029;-36
2021/11/10 06:25:05;;;;;;;15.48;8.35;;;2.80;89.20;;;;;;5073956;28;20377;-36
2021/11/10 06:27:32;;;;;;;20.02;9.40;;;2.80;89.40;;;;;;5072861;28;20031;-36
2021/11/10 06:29:59;;;;;;;16.63;8.25;;;2.80;89.50;;;;;;5072887;28;20024;-37
2021/11/10 06:32:24;;;;;;;14.10;8.55;;;2.80;89.50;;;;;;5073812;28;20035;-37
2021/11/10 06:34:50;;;;;;;17.65;9.27;;;2.80;89.60;;;;;;5072521;28;20024;-36
2021/11/10 06:37:16;;;;;;;16.80;8.88;;;2.90;89.70;;;;;;5072827;28;20025;-36
2021/11/10 06:39:42;;;;;;;21.23;10.25;;;2.90;89.70;;;;;;5072632;28;20490;-36
2021/11/10 06:42:08;;;;;;;17.45;9.02;;;2.90;89.70;;;;;;5073446;28;20101;-37
2021/11/10 06:44:35;;;;;;;15.07;9.15;;;2.90;89.60;;;;;;5072432;28;20058;-36
2021/11/10 06:47:02;;;;;;;14.02;7.55;;;3.00;89.60;;;;;;5074625;28;20028;-37
2021/11/10 06:49:28;;;;;;;17.67;8.70;;;3.00;89.60;;;;;;5074089;28;20471;-37
2021/11/10 06:51:54;;;;;;;24.10;9.52;;;3.10;89.60;;;;;;5073636;28;20031;-37
2021/11/10 06:54:21;;;;;;;15.85;9.43;;;3.20;89.30;;;;;;5073677;28;20514;-39
2021/11/10 06:56:48;;;;;;;14.27;8.70;;;3.10;89.10;;;;;;5073496;28;20078;-37
2021/11/10 06:59:13;;;;;;;18.55;9.95;;;3.10;89.20;;;;;;5073286;28;20035;-37
2021/11/10 07:01:39;;;;;;;13.82;9.43;;;3.10;89.10;;;;;;5073441;28;20029;-37
2021/11/10 07:04:04;;;;;;;19.08;11.80;;;3.10;89.10;;;;;;5072956;28;20089;-36
2021/11/10 07:06:30;;;;;;;22.10;9.73;;;3.10;89.00;;;;;;5071585;28;20052;-36
2021/11/10 07:08:56;;;;;;;22.65;10.15;;;3.20;88.70;;;;;;5073155;28;20020;-36
2021/11/10 07:11:21;;;;;;;21.25;10.70;;;3.20;88.60;;;;;;5073082;28;20040;-37
2021/11/10 07:13:47;;;;;;;24.02;10.77;;;3.20;88.60;;;;;;5072343;28;20326;-37
2021/11/10 07:16:14;;;;;;;21.52;12.27;;;3.20;88.50;;;;;;5073511;28;20031;-39
2021/11/10 07:18:40;;;;;;;21.52;11.18;;;3.20;88.30;;;;;;5072951;28;20040;-37
2021/11/10 07:21:07;;;;;;;23.25;12.57;;;3.20;88.10;;;;;;5073314;28;20460;-37
2021/11/10 07:23:33;;;;;;;21.63;13.45;;;3.30;88.10;;;;;;5072833;28;20482;-38
2021/11/10 07:25:58;;;;;;;21.08;11.48;;;3.30;88.20;;;;;;5072968;28;20461;-37
2021/11/10 07:28:24;;;;;;;24.65;11.40;;;3.40;88.30;;;;;;5073134;28;20081;-37
2021/11/10 07:30:50;;;;;;;29.05;12.07;;;3.40;87.90;;;;;;5072849;28;20067;-37
2021/11/10 07:33:16;;;;;;;20.63;11.40;;;3.40;87.70;;;;;;5072614;28;20025;-36
2021/11/10 07:35:42;;;;;;;24.45;13.10;;;3.40;87.70;;;;;;5072835;28;20024;-37
2021/11/10 07:38:08;;;;;;;22.88;12.10;;;3.40;87.60;;;;;;5072739;28;20020;-37
2021/11/10 07:40:34;;;;;;;20.67;11.90;;;3.30;87.70;;;;;;5072709;28;20027;-38
2021/11/10 07:43:00;;;;;;;17.83;10.75;;;3.30;88.20;;;;;;5072822;28;20036;-38
2021/11/10 07:45:36;;;;;;;20.05;11.18;;;3.30;88.40;;;;;;5072520;28;20024;-38
2021/11/10 07:48:04;;;;;;;24.38;12.35;;;3.20;88.60;;;;;;5071209;28;20032;-38
2021/11/10 07:50:31;;;;;;;26.05;13.30;;;3.30;88.90;;;;;;5072538;28;20036;-37
2021/11/10 07:52:57;;;;;;;21.02;12.02;;;3.40;88.70;;;;;;5072631;28;20025;-38
2021/11/10 07:55:24;;;;;;;24.35;11.77;;;3.40;88.50;;;;;;5072752;28;20031;-38
2021/11/10 07:57:51;;;;;;;18.60;11.85;;;3.50;88.60;;;;;;5072852;28;20025;-38
2021/11/10 08:00:18;;;;;;;19.45;11.60;;;3.50;88.60;;;;;;5072426;28;20048;-41
2021/11/10 08:02:46;;;;;;;21.63;12.35;;;3.60;88.60;;;;;;5072359;28;20128;-36
2021/11/10 08:05:14;;;;;;;21.30;13.13;;;3.90;88.30;;;;;;5072854;28;20028;-38
2021/11/10 08:07:40;;;;;;;24.40;12.77;;;3.90;87.90;;;;;;5072282;28;20052;-38
2021/11/10 08:10:09;;;;;;;23.77;13.10;;;4.00;87.90;;;;;;5072915;28;20425;-38
2021/11/10 08:12:36;;;;;;;23.35;11.70;;;4.30;87.60;;;;;;5072357;28;20096;-36
2021/11/10 08:15:07;;;;;;;18.67;12.00;;;4.30;86.80;;;;;;5072480;28;20020;-36
2021/11/10 08:17:35;;;;;;;;;;;4.50;86.50;;;;;;5072769;28;20020;-37
2021/11/10 08:20:05;;;;;;;17.58;10.52;;;4.80;85.90;;;;;;5072648;28;19904;-37
2021/11/10 08:22:32;;;;;;;22.58;10.88;;;5.10;85.00;;;;;;5072024;28;20028;-36
2021/11/10 08:24:59;;;;;;;21.67;12.45;;;5.10;84.40;;;;;;5072278;28;20388;-36
2021/11/10 08:27:24;;;;;;;24.90;13.68;;;4.70;84.30;;;;;;5071951;28;20510;-43
2021/11/10 08:29:50;;;;;;;24.20;13.68;;;4.30;85.20;;;;;;5072766;28;20080;-37
2021/11/10 08:32:16;;;;;;;20.60;11.40;;;4.40;85.60;;;;;;5072452;28;20393;-36
2021/11/10 08:34:42;;;;;;;23.77;11.48;;;4.30;85.20;;;;;;5074504;28;20421;-37
2021/11/10 08:37:08;;;;;;;23.15;11.20;;;4.30;85.70;;;;;;5075751;28;20325;-38
2021/11/10 08:39:33;;;;;;;21.00;10.73;;;4.30;85.50;;;;;;5076288;28;20490;-38
2021/11/10 08:42:01;;;;;;;23.33;11.45;;;4.30;85.90;;;;;;5075763;28;20029;-38
2021/11/10 08:44:27;;;;;;;24.20;11.55;;;4.40;85.90;;;;;;5076098;28;20134;-38
2021/11/10 08:46:56;;;;;;;22.77;9.80;;;5.00;85.00;;;;;;5075742;28;20083;-38
2021/11/10 08:49:22;;;;;;;29.13;14.05;;;5.30;84.10;;;;;;5076126;28;20035;-38
2021/11/10 08:51:48;;;;;;;20.67;9.95;;;6.00;81.00;;;;;;5076028;28;20074;-38
2021/11/10 08:54:14;;;;;;;20.52;8.63;;;6.50;80.60;;;;;;5075737;28;20032;-36
2021/11/10 08:56:39;;;;;;;17.95;9.05;;;7.00;78.40;;;;;;5075539;28;20037;-36
2021/11/10 08:59:05;;;;;;;16.83;9.15;;;7.40;76.60;;;;;;5075522;28;20425;-38
2021/11/10 09:01:32;;;;;;;17.40;8.98;;;7.40;76.00;;;;;;5075564;28;20028;-38
2021/11/10 09:03:58;;;;;;;16.98;8.80;;;7.50;75.90;;;;;;5075831;28;20432;-37
2021/11/10 09:06:24;;;;;;;26.52;9.60;;;8.30;75.10;;;;;;5075407;28;20071;-38
2021/11/10 09:08:50;;;;;;;19.55;10.63;;;8.60;72.50;;;;;;5075958;28;20024;-38
2021/11/10 09:11:15;;;;;;;21.10;9.50;;;8.60;71.30;;;;;;5075468;28;20425;-39
2021/11/10 09:13:41;;;;;;;17.02;9.68;;;8.20;73.00;;;;;;5075429;28;20036;-38
2021/11/10 09:16:07;;;;;;;16.30;9.10;;;8.10;73.80;;;;;;5075407;28;20024;-38
2021/11/10 09:18:32;;;;;;;31.05;9.40;;;8.20;74.10;;;;;;5075521;28;20017;-38
2021/11/10 09:20:58;;;;;;;17.05;9.20;;;8.60;73.30;;;;;;5074848;28;20031;-37
2021/11/10 09:23:24;;;;;;;19.90;8.68;;;8.80;71.30;;;;;;5075393;28;20091;-38
2021/11/10 09:25:51;;;;;;;21.00;9.98;;;8.30;71.90;;;;;;5075136;28;20107;-38
2021/11/10 09:28:19;;;;;;;18.35;9.50;;;7.90;73.50;;;;;;5075253;28;20510;-36
2021/11/10 09:30:49;;;;;;;24.52;9.98;;;7.80;74.70;;;;;;5074728;28;20097;-36
2021/11/10 09:33:15;;;;;;;19.63;10.13;;;8.20;74.60;;;;;;5075516;28;20033;-38
2021/11/10 09:35:42;;;;;;;21.35;10.93;;;8.60;71.80;;;;;;5075046;28;20534;-38
2021/11/10 09:38:08;;;;;;;18.98;11.90;;;8.60;72.00;;;;;;5074615;28;20484;-37
2021/11/10 09:40:36;;;;;;;28.73;10.50;;;8.70;72.60;;;;;;5075049;28;20025;-38
2021/11/10 09:43:03;;;;;;;24.83;9.27;;;8.10;74.70;;;;;;5075260;28;20029;-38
2021/11/10 09:45:33;;;;;;;15.00;9.20;;;7.90;74.40;;;;;;5073117;28;20536;-38
2021/11/10 09:48:03;;;;;;;23.58;10.70;;;7.60;76.80;;;;;;5074907;28;20021;-37
2021/11/10 09:50:30;;;;;;;;;;;7.40;77.90;;;;;;5075592;28;20077;-38
2021/11/10 09:52:58;;;;;;;20.98;10.68;;;7.60;78.10;;;;;;5073172;28;20388;-37
2021/11/10 09:55:33;;;;;;;19.17;11.10;;;7.70;77.60;;;;;;5074360;28;20051;-37
2021/11/10 09:58:00;;;;;;;29.67;10.70;;;7.90;76.90;;;;;;5074917;28;20020;-38
2021/11/10 10:00:32;;;;;;;28.42;11.30;;;8.00;76.80;;;;;;5074532;28;20017;-38
2021/11/10 10:03:01;;;;;;;23.90;9.95;;;7.90;76.20;;;;;;5074535;28;20033;-36
2021/11/10 10:05:27;;;;;;;26.65;10.43;;;7.80;76.90;;;;;;5072986;28;20530;-39
2021/11/10 10:07:56;;;;;;;22.83;10.32;;;8.00;75.90;;;;;;5074250;28;20029;-38
2021/11/10 10:10:23;;;;;;;22.27;10.93;;;8.30;75.40;;;;;;5056895;28;20051;-38
2021/11/10 10:12:52;;;;;;;21.38;9.90;;;8.40;74.60;;;;;;5074503;28;20020;-39
2021/11/10 10:15:19;;;;;;;22.05;9.27;;;8.50;74.70;;;;;;5073883;28;20056;-39
2021/11/10 10:17:47;;;;;;;22.00;9.88;;;8.20;74.80;;;;;;5074009;28;20387;-38
2021/11/10 10:20:22;;;;;;;17.15;10.35;;;8.20;75.70;;;;;;5074345;28;20048;-38
2021/11/10 10:22:53;;;;;;;23.92;10.27;;;8.50;74.50;;;;;;5073825;28;20025;-37
2021/11/10 10:25:19;;;;;;;18.08;9.65;;;8.80;73.50;;;;;;5073835;28;20033;-37
2021/11/10 10:27:54;;;;;;;21.48;9.90;;;9.00;72.80;;;;;;5073675;28;20365;-37
2021/11/10 10:30:29;;;;;;;19.83;10.60;;;8.80;73.30;;;;;;5073478;28;20037;-37
2021/11/10 10:32:59;;;;;;;22.10;10.82;;;8.70;74.30;;;;;;5072319;28;20032;-38
2021/11/10 10:35:30;;;;;;;22.45;10.25;;;8.90;73.50;;;;;;5072150;28;20032;-37
2021/11/10 10:37:56;;;;;;;22.23;10.38;;;8.80;73.40;;;;;;5073973;28;20115;-37
2021/11/10 10:40:21;;;;;;;23.70;10.63;;;8.80;74.00;;;;;;5073436;28;20044;-37
2021/11/10 10:42:47;;;;;;;17.15;8.88;;;8.90;73.40;;;;;;5074054;28;20025;-37
2021/11/10 10:45:35;;;;;;;29.48;10.15;;;9.30;73.00;;;;;;5073354;28;20357;-38
2021/11/10 10:48:09;;;;;;;20.00;9.45;;;9.70;70.90;;;;;;5071932;28;20119;-38
2021/11/10 10:50:45;;;;;;;19.88;9.73;;;9.70;69.30;;;;;;5072335;28;20036;-38
2021/11/10 10:53:14;;;;;;;22.55;9.98;;;9.70;70.40;;;;;;5073380;28;20024;-38
2021/11/10 10:55:45;;;;;;;18.17;9.27;;;10.00;69.50;;;;;;5072814;28;20042;-37
2021/11/10 10:58:34;;;;;;;18.88;9.93;;;10.10;68.10;;;;;;5072462;28;20044;-37
2021/11/10 11:01:16;;;;;;;22.60;9.52;;;9.90;69.60;;;;;;5071550;28;20507;-38
2021/11/10 11:04:10;;;;;;;20.15;9.38;;;10.20;68.60;;;;;;5072906;28;20472;-37
2021/11/10 11:06:40;;;;;;;21.80;9.35;;;10.30;68.30;;;;;;5067046;28;20052;-37
2021/11/10 11:09:15;;;;;;;23.90;9.88;;;10.30;68.20;;;;;;5073257;28;20094;-40
2021/11/10 11:12:17;;;;;;;20.92;10.52;;;10.40;67.00;;;;;;5072810;28;20032;-37
2021/11/10 11:14:52;;;;;;;19.70;9.95;;;10.10;67.70;;;;;;5072853;28;20020;-38
2021/11/10 11:17:18;;;;;;;23.70;10.38;;;10.10;68.60;;;;;;5072713;28;20020;-36
2021/11/10 11:20:05;;;;;;;20.30;9.05;;;10.00;68.80;;;;;;5072857;28;20071;-37
2021/11/10 11:22:52;;;;;;;16.73;9.38;;;10.30;68.20;;;;;;5072816;28;20020;-37
2021/11/10 11:25:25;;;;;;;19.52;9.45;;;10.30;68.40;;;;;;5072864;28;20476;-37
2021/11/10 11:27:54;;;;;;;22.02;9.23;;;10.10;68.20;;;;;;5072967;28;20025;-37
2021/11/10 11:30:22;;;;;;;18.33;7.63;;;10.10;68.80;;;;;;5072798;28;20020;-43
2021/11/10 11:32:50;;;;;;;20.83;9.13;;;9.90;69.10;;;;;;5072834;28;20017;-37
2021/11/10 11:35:23;;;;;;;20.27;8.77;;;10.00;68.80;;;;;;5072484;28;20029;-37
2021/11/10 11:37:50;;;;;;;16.10;9.35;;;10.10;68.40;;;;;;5070773;28;20024;-37
2021/11/10 11:40:19;;;;;;;19.33;9.70;;;10.10;68.70;;;;;;5073339;28;20354;-40
2021/11/10 11:42:49;;;;;;;20.45;9.13;;;10.00;68.50;;;;;;5071839;28;20109;-37
2021/11/10 11:45:17;;;;;;;25.00;9.93;;;9.80;69.50;;;;;;5072728;28;20028;-37
2021/11/10 11:47:46;;;;;;;22.00;9.68;;;9.80;69.40;;;;;;5071488;28;20033;-36
2021/11/10 11:50:12;;;;;;;17.33;8.27;;;9.90;69.20;;;;;;5071601;28;20052;-37
2021/11/10 11:52:38;;;;;;;16.45;8.10;;;9.80;69.60;;;;;;5072679;28;20036;-37
2021/11/10 11:55:23;;;;;;;23.23;8.60;;;9.80;69.40;;;;;;5072516;28;20052;-38
2021/11/10 11:58:12;;;;;;;12.40;7.35;;;9.80;69.70;;;;;;5072329;28;20105;-37
2021/11/10 12:00:44;;;;;;;16.88;7.97;;;9.80;69.20;;;;;;5072302;28;20356;-38
2021/11/10 12:03:23;;;;;;;17.40;7.07;;;9.90;68.90;;;;;;5072804;28;20024;-39
2021/11/10 12:06:13;;;;;;;17.30;7.10;;;9.90;69.30;;;;;;5071869;28;20089;-39
2021/11/10 12:08:55;;;;;;;16.70;6.82;;;10.20;67.90;;;;;;5074217;28;20036;-37
2021/11/10 12:11:27;;;;;;;13.27;7.78;;;10.20;67.60;;;;;;5076316;28;20480;-38
2021/11/10 12:14:07;;;;;;;19.23;6.93;;;10.60;66.90;;;;;;5076320;28;20024;-38
2021/11/10 12:16:48;;;;;;;;;;;10.60;65.80;;;;;;5076650;28;20082;-37
2021/11/10 12:19:34;;;;;;;14.07;6.47;;;10.30;66.50;;;;;;5076162;28;19908;-37
2021/11/10 12:22:01;;;;;;;15.07;8.13;;;10.70;65.60;;;;;;5075792;28;20028;-37
2021/11/10 12:24:43;;;;;;;17.83;7.68;;;10.80;65.30;;;;;;5075970;28;20332;-37
2021/11/10 12:27:15;;;;;;;15.48;6.85;;;10.70;65.30;;;;;;5075904;28;20021;-37
2021/11/10 12:29:45;;;;;;;13.77;6.45;;;10.80;65.30;;;;;;5075860;28;20028;-37
2021/11/10 12:32:12;;;;;;;;;;;10.50;65.20;;;;;;5076046;28;20020;-37
2021/11/10 12:34:37;;;;;;;13.50;7.07;;;10.60;65.10;;;;;;5076407;28;19936;-37
2021/11/10 12:37:05;;;;;;;18.58;7.63;;;10.60;65.00;;;;;;5076000;28;20063;-37
2021/11/10 12:39:37;;;;;;;15.38;7.15;;;10.60;65.30;;;;;;5075992;28;20028;-37
2021/11/10 12:42:08;;;;;;;10.57;6.05;;;10.60;65.30;;;;;;5074679;28;20043;-38
2021/11/10 12:44:45;;;;;;;11.70;6.30;;;10.30;66.10;;;;;;5075949;28;20465;-37
2021/11/10 12:47:12;;;;;;;16.75;7.50;;;10.20;66.60;;;;;;5074308;28;20020;-37
2021/11/10 12:49:40;;;;;;;15.90;7.00;;;10.30;66.90;;;;;;5074462;28;20178;-38